sensor_id;sensor_type;location;lat;lon;timestamp;pressure;altitude;pressure_sealevel;temperature;humidity
14882;BME280;7533;51.278;12.588;2023-06-04T00:04:38;100541.97;;;29.03;46.75
14882;BME280;7533;51.278;12.588;2023-06-04T00:09:43;100549.88;;;28.96;46.95
14882;BME280;7533;51.278;12.588;2023-06-04T00:14:48;100533.94;;;28.91;47.26
14882;BME280;7533;51.278;12.588;2023-06-04T00:19:51;100532.97;;;28.83;46.96
14882;BME280;7533;51.278;12.588;2023-06-04T00:24:55;100535.13;;;28.79;47.57
14882;BME280;7533;51.278;12.588;2023-06-04T00:29:58;100526.56;;;28.74;47.25
14882;BME280;7533;51.278;12.588;2023-06-04T00:35:01;100523.53;;;28.67;47.48
14882;BME280;7533;51.278;12.588;2023-06-04T00:40:07;100517.53;;;28.64;47.84
14882;BME280;7533;51.278;12.588;2023-06-04T00:45:10;100517.28;;;28.57;47.79
14882;BME280;7533;51.278;12.588;2023-06-04T00:50:15;100521.44;;;28.52;47.91
14882;BME280;7533;51.278;12.588;2023-06-04T00:55:19;100516.16;;;28.40;48.24
14882;BME280;7533;51.278;12.588;2023-06-04T01:00:22;100522.75;;;28.38;48.18
14882;BME280;7533;51.278;12.588;2023-06-04T01:05:29;100520.00;;;28.28;48.45
14882;BME280;7533;51.278;12.588;2023-06-04T01:10:38;100514.56;;;28.28;48.54
14882;BME280;7533;51.278;12.588;2023-06-04T01:15:40;100519.72;;;28.21;48.63
14882;BME280;7533;51.278;12.588;2023-06-04T01:20:46;100521.03;;;28.17;48.41
14882;BME280;7533;51.278;12.588;2023-06-04T01:25:53;100521.59;;;28.11;48.78
14882;BME280;7533;51.278;12.588;2023-06-04T01:30:59;100519.31;;;28.07;48.83
14882;BME280;7533;51.278;12.588;2023-06-04T01:36:03;100519.91;;;28.01;48.89
14882;BME280;7533;51.278;12.588;2023-06-04T01:41:09;100515.00;;;27.94;48.90
14882;BME280;7533;51.278;12.588;2023-06-04T01:46:12;100525.34;;;27.91;49.07
14882;BME280;7533;51.278;12.588;2023-06-04T01:51:15;100529.63;;;27.84;49.23
14882;BME280;7533;51.278;12.588;2023-06-04T01:56:19;100525.03;;;27.75;49.38
14882;BME280;7533;51.278;12.588;2023-06-04T02:01:23;100526.69;;;27.66;49.65
14882;BME280;7533;51.278;12.588;2023-06-04T02:06:26;100522.97;;;27.57;49.96
14882;BME280;7533;51.278;12.588;2023-06-04T02:11:34;100529.09;;;27.50;50.20
14882;BME280;7533;51.278;12.588;2023-06-04T02:16:37;100527.78;;;27.44;50.24
14882;BME280;7533;51.278;12.588;2023-06-04T02:21:41;100539.22;;;27.38;50.33
14882;BME280;7533;51.278;12.588;2023-06-04T02:26:45;100534.34;;;27.32;50.47
14882;BME280;7533;51.278;12.588;2023-06-04T02:31:48;100540.19;;;27.27;50.59
14882;BME280;7533;51.278;12.588;2023-06-04T02:36:51;100538.91;;;27.22;50.71
14882;BME280;7533;51.278;12.588;2023-06-04T02:41:56;100537.47;;;27.18;50.86
14882;BME280;7533;51.278;12.588;2023-06-04T02:47:00;100535.31;;;27.11;51.09
14882;BME280;7533;51.278;12.588;2023-06-04T02:52:03;100536.56;;;27.07;51.20
14882;BME280;7533;51.278;12.588;2023-06-04T02:57:07;100536.94;;;27.03;51.20
14882;BME280;7533;51.278;12.588;2023-06-04T03:02:11;100540.19;;;26.97;51.39
14882;BME280;7533;51.278;12.588;2023-06-04T03:07:14;100535.91;;;26.94;51.37
14882;BME280;7533;51.278;12.588;2023-06-04T03:12:18;100542.88;;;26.87;51.76
14882;BME280;7533;51.278;12.588;2023-06-04T03:17:21;100540.44;;;26.84;51.67
14882;BME280;7533;51.278;12.588;2023-06-04T03:22:24;100537.25;;;26.79;51.90
14882;BME280;7533;51.278;12.588;2023-06-04T03:27:32;100550.38;;;26.74;52.02
14882;BME280;7533;51.278;12.588;2023-06-04T03:32:35;100567.06;;;26.69;51.71
14882;BME280;7533;51.278;12.588;2023-06-04T03:37:39;100570.31;;;26.63;52.07
14882;BME280;7533;51.278;12.588;2023-06-04T03:42:44;100565.28;;;26.58;52.27
14882;BME280;7533;51.278;12.588;2023-06-04T03:47:48;100562.97;;;26.54;52.26
14882;BME280;7533;51.278;12.588;2023-06-04T03:52:52;100564.25;;;26.50;52.37
14882;BME280;7533;51.278;12.588;2023-06-04T03:57:56;100561.63;;;26.48;52.52
14882;BME280;7533;51.278;12.588;2023-06-04T04:02:59;100564.63;;;26.45;52.52
14882;BME280;7533;51.278;12.588;2023-06-04T04:08:04;100568.47;;;26.43;52.78
14882;BME280;7533;51.278;12.588;2023-06-04T04:13:10;100562.28;;;26.41;52.65
14882;BME280;7533;51.278;12.588;2023-06-04T04:18:15;100561.56;;;26.38;52.55
14882;BME280;7533;51.278;12.588;2023-06-04T04:23:19;100558.09;;;26.36;52.69
14882;BME280;7533;51.278;12.588;2023-06-04T04:28:24;100565.25;;;26.37;52.78
14882;BME280;7533;51.278;12.588;2023-06-04T04:33:31;100563.53;;;26.36;52.98
14882;BME280;7533;51.278;12.588;2023-06-04T04:38:43;100561.94;;;26.34;52.99
14882;BME280;7533;51.278;12.588;2023-06-04T04:43:48;100563.91;;;26.32;52.90
14882;BME280;7533;51.278;12.588;2023-06-04T04:48:56;100571.94;;;26.33;53.17
14882;BME280;7533;51.278;12.588;2023-06-04T04:53:59;100582.06;;;26.31;52.98
14882;BME280;7533;51.278;12.588;2023-06-04T04:59:06;100579.47;;;26.30;53.05
14882;BME280;7533;51.278;12.588;2023-06-04T05:04:09;100579.63;;;26.28;53.09
14882;BME280;7533;51.278;12.588;2023-06-04T05:09:14;100578.88;;;26.26;53.36
14882;BME280;7533;51.278;12.588;2023-06-04T05:14:20;100586.03;;;26.27;52.93
14882;BME280;7533;51.278;12.588;2023-06-04T05:19:24;100579.75;;;26.27;53.11
14882;BME280;7533;51.278;12.588;2023-06-04T05:24:27;100584.28;;;26.26;53.26
14882;BME280;7533;51.278;12.588;2023-06-04T05:29:35;100587.00;;;26.26;53.64
14882;BME280;7533;51.278;12.588;2023-06-04T05:34:37;100583.44;;;26.26;53.61
14882;BME280;7533;51.278;12.588;2023-06-04T05:39:42;100586.28;;;26.24;53.46
14882;BME280;7533;51.278;12.588;2023-06-04T05:44:49;100595.28;;;26.25;53.57
14882;BME280;7533;51.278;12.588;2023-06-04T05:49:55;100594.28;;;26.26;53.65
14882;BME280;7533;51.278;12.588;2023-06-04T05:54:59;100599.84;;;26.24;53.25
14882;BME280;7533;51.278;12.588;2023-06-04T06:00:05;100596.16;;;26.25;53.28
14882;BME280;7533;51.278;12.588;2023-06-04T06:05:14;100605.16;;;26.26;53.46
14882;BME280;7533;51.278;12.588;2023-06-04T06:10:18;100601.47;;;26.27;53.27
14882;BME280;7533;51.278;12.588;2023-06-04T06:15:22;100607.75;;;26.27;53.27
14882;BME280;7533;51.278;12.588;2023-06-04T06:20:26;100608.72;;;26.26;53.45
14882;BME280;7533;51.278;12.588;2023-06-04T06:25:30;100611.31;;;26.28;53.53
14882;BME280;7533;51.278;12.588;2023-06-04T06:30:40;100623.75;;;26.30;53.70
14882;BME280;7533;51.278;12.588;2023-06-04T06:35:43;100623.75;;;26.30;53.36
14882;BME280;7533;51.278;12.588;2023-06-04T06:40:48;100629.19;;;26.30;53.70
14882;BME280;7533;51.278;12.588;2023-06-04T06:45:52;100632.66;;;26.32;53.78
14882;BME280;7533;51.278;12.588;2023-06-04T06:50:55;100638.94;;;26.33;53.72
14882;BME280;7533;51.278;12.588;2023-06-04T06:55:58;100627.09;;;26.34;53.78
14882;BME280;7533;51.278;12.588;2023-06-04T07:01:02;100643.22;;;26.35;53.91
14882;BME280;7533;51.278;12.588;2023-06-04T07:06:06;100641.13;;;26.39;53.76
14882;BME280;7533;51.278;12.588;2023-06-04T07:11:08;100638.09;;;25.55;49.23
14882;BME280;7533;51.278;12.588;2023-06-04T07:16:14;100641.81;;;25.54;43.75
14882;BME280;7533;51.278;12.588;2023-06-04T07:21:18;100644.53;;;25.77;41.50
14882;BME280;7533;51.278;12.588;2023-06-04T07:26:23;100642.66;;;25.44;41.31
14882;BME280;7533;51.278;12.588;2023-06-04T07:31:28;100644.66;;;24.84;41.06
14882;BME280;7533;51.278;12.588;2023-06-04T07:36:31;100655.44;;;24.14;40.60
14882;BME280;7533;51.278;12.588;2023-06-04T07:41:34;100660.25;;;24.21;40.32
14882;BME280;7533;51.278;12.588;2023-06-04T07:46:39;100652.16;;;24.21;39.18
14882;BME280;7533;51.278;12.588;2023-06-04T07:51:42;100649.16;;;23.77;39.21
14882;BME280;7533;51.278;12.588;2023-06-04T07:56:44;100657.63;;;23.72;37.81
14882;BME280;7533;51.278;12.588;2023-06-04T08:01:49;100651.81;;;24.02;38.04
14882;BME280;7533;51.278;12.588;2023-06-04T08:06:52;100651.81;;;23.53;37.59
14882;BME280;7533;51.278;12.588;2023-06-04T08:11:56;100646.19;;;23.68;37.24
14882;BME280;7533;51.278;12.588;2023-06-04T08:17:01;100643.91;;;23.62;37.59
14882;BME280;7533;51.278;12.588;2023-06-04T08:22:04;100643.91;;;23.62;37.04
14882;BME280;7533;51.278;12.588;2023-06-04T08:27:08;100634.47;;;24.28;37.17
14882;BME280;7533;51.278;12.588;2023-06-04T08:32:12;100634.72;;;23.52;36.67
14882;BME280;7533;51.278;12.588;2023-06-04T08:37:16;100642.50;;;23.69;36.55
14882;BME280;7533;51.278;12.588;2023-06-04T08:42:22;100642.94;;;23.38;36.35
14882;BME280;7533;51.278;12.588;2023-06-04T08:47:34;100650.56;;;23.57;36.42
14882;BME280;7533;51.278;12.588;2023-06-04T08:52:39;100661.28;;;24.91;35.92
14882;BME280;7533;51.278;12.588;2023-06-04T08:57:42;100633.69;;;25.43;36.34
14882;BME280;7533;51.278;12.588;2023-06-04T09:02:47;100655.44;;;25.64;36.68
14882;BME280;7533;51.278;12.588;2023-06-04T09:07:53;100639.97;;;25.77;37.31
14882;BME280;7533;51.278;12.588;2023-06-04T09:13:01;100652.72;;;25.87;37.51
14882;BME280;7533;51.278;12.588;2023-06-04T09:18:06;100644.97;;;25.93;37.78
14882;BME280;7533;51.278;12.588;2023-06-04T09:23:13;100662.59;;;25.99;38.29
14882;BME280;7533;51.278;12.588;2023-06-04T09:28:17;100651.47;;;26.02;38.55
14882;BME280;7533;51.278;12.588;2023-06-04T09:33:21;100647.53;;;26.06;38.76
14882;BME280;7533;51.278;12.588;2023-06-04T09:38:33;100653.44;;;26.11;39.19
14882;BME280;7533;51.278;12.588;2023-06-04T09:43:38;100649.59;;;26.14;39.63
14882;BME280;7533;51.278;12.588;2023-06-04T09:48:44;100632.22;;;26.16;39.84
14882;BME280;7533;51.278;12.588;2023-06-04T09:53:53;100637.22;;;26.21;39.96
14882;BME280;7533;51.278;12.588;2023-06-04T09:58:58;100636.00;;;26.25;39.99
14882;BME280;7533;51.278;12.588;2023-06-04T10:04:07;100631.31;;;26.27;40.76
14882;BME280;7533;51.278;12.588;2023-06-04T10:09:12;100627.59;;;26.28;41.09
14882;BME280;7533;51.278;12.588;2023-06-04T10:14:20;100625.47;;;26.31;40.99
14882;BME280;7533;51.278;12.588;2023-06-04T10:19:26;100637.94;;;26.34;41.22
14882;BME280;7533;51.278;12.588;2023-06-04T10:24:30;100630.66;;;26.34;41.28
14882;BME280;7533;51.278;12.588;2023-06-04T10:29:34;100627.22;;;26.32;41.45
14882;BME280;7533;51.278;12.588;2023-06-04T10:34:38;100623.50;;;26.33;41.83
14882;BME280;7533;51.278;12.588;2023-06-04T10:39:51;100625.09;;;26.36;41.89
14882;BME280;7533;51.278;12.588;2023-06-04T10:44:57;100629.53;;;26.37;42.32
14882;BME280;7533;51.278;12.588;2023-06-04T10:50:09;100627.56;;;26.39;42.51
14882;BME280;7533;51.278;12.588;2023-06-04T10:55:12;100623.75;;;26.42;42.54
14882;BME280;7533;51.278;12.588;2023-06-04T11:00:16;100623.59;;;26.43;42.57
14882;BME280;7533;51.278;12.588;2023-06-04T11:05:21;100610.63;;;26.47;42.65
14882;BME280;7533;51.278;12.588;2023-06-04T11:10:31;100619.41;;;26.50;42.78
14882;BME280;7533;51.278;12.588;2023-06-04T11:15:39;100619.41;;;26.50;43.03
14882;BME280;7533;51.278;12.588;2023-06-04T11:20:46;100619.13;;;26.53;43.17
14882;BME280;7533;51.278;12.588;2023-06-04T11:25:52;100607.16;;;26.56;43.51
14882;BME280;7533;51.278;12.588;2023-06-04T11:30:57;100608.00;;;26.56;43.46
14882;BME280;7533;51.278;12.588;2023-06-04T11:36:01;100605.16;;;26.58;43.53
14882;BME280;7533;51.278;12.588;2023-06-04T11:41:04;100601.34;;;26.60;43.66
14882;BME280;7533;51.278;12.588;2023-06-04T11:46:08;100598.34;;;26.63;43.93
14882;BME280;7533;51.278;12.588;2023-06-04T11:51:13;100594.63;;;26.64;43.90
14882;BME280;7533;51.278;12.588;2023-06-04T11:56:17;100599.94;;;26.66;43.88
14882;BME280;7533;51.278;12.588;2023-06-04T12:01:20;100591.50;;;26.69;43.84
14882;BME280;7533;51.278;12.588;2023-06-04T12:06:25;100592.22;;;26.71;44.17
14882;BME280;7533;51.278;12.588;2023-06-04T12:11:29;100589.41;;;26.73;44.07
14882;BME280;7533;51.278;12.588;2023-06-04T12:16:33;100590.84;;;26.77;44.29
14882;BME280;7533;51.278;12.588;2023-06-04T12:21:38;100595.88;;;26.81;44.02
14882;BME280;7533;51.278;12.588;2023-06-04T12:26:43;100575.84;;;26.82;44.08
14882;BME280;7533;51.278;12.588;2023-06-04T12:31:49;100585.28;;;26.78;44.14
14882;BME280;7533;51.278;12.588;2023-06-04T12:36:54;100583.22;;;26.92;44.11
14882;BME280;7533;51.278;12.588;2023-06-04T12:41:57;100590.19;;;26.84;44.11
14882;BME280;7533;51.278;12.588;2023-06-04T12:47:00;100585.94;;;26.92;44.22
14882;BME280;7533;51.278;12.588;2023-06-04T12:52:04;100583.66;;;26.97;44.13
14882;BME280;7533;51.278;12.588;2023-06-04T12:57:07;100584.97;;;27.02;44.08
14882;BME280;7533;51.278;12.588;2023-06-04T13:02:10;100574.19;;;27.12;44.01
14882;BME280;7533;51.278;12.588;2023-06-04T13:07:14;100566.22;;;27.20;44.88
14882;BME280;7533;51.278;12.588;2023-06-04T13:12:17;100572.81;;;27.27;45.37
14882;BME280;7533;51.278;12.588;2023-06-04T13:17:20;100568.13;;;27.29;46.30
14882;BME280;7533;51.278;12.588;2023-06-04T13:22:25;100558.69;;;27.33;47.55
14882;BME280;7533;51.278;12.588;2023-06-04T13:27:28;100556.94;;;27.32;48.00
14882;BME280;7533;51.278;12.588;2023-06-04T13:32:31;100563.13;;;27.34;47.67
14882;BME280;7533;51.278;12.588;2023-06-04T13:37:35;100562.56;;;27.40;46.67
14882;BME280;7533;51.278;12.588;2023-06-04T13:42:38;100559.00;;;27.50;46.11
14882;BME280;7533;51.278;12.588;2023-06-04T13:47:41;100552.16;;;27.55;45.73
14882;BME280;7533;51.278;12.588;2023-06-04T13:52:45;100540.84;;;27.60;45.57
14882;BME280;7533;51.278;12.588;2023-06-04T13:57:48;100539.59;;;27.64;45.67
14882;BME280;7533;51.278;12.588;2023-06-04T14:02:51;100545.19;;;27.72;45.17
14882;BME280;7533;51.278;12.588;2023-06-04T14:07:58;100539.50;;;27.75;45.30
14882;BME280;7533;51.278;12.588;2023-06-04T14:13:01;100540.09;;;27.79;45.15
14882;BME280;7533;51.278;12.588;2023-06-04T14:18:04;100534.34;;;27.82;45.13
14882;BME280;7533;51.278;12.588;2023-06-04T14:23:09;100533.66;;;27.89;45.05
14882;BME280;7533;51.278;12.588;2023-06-04T14:28:13;100523.91;;;27.87;45.01
14882;BME280;7533;51.278;12.588;2023-06-04T14:33:16;100524.47;;;27.90;45.01
14882;BME280;7533;51.278;12.588;2023-06-04T14:38:21;100518.03;;;27.91;45.13
14882;BME280;7533;51.278;12.588;2023-06-04T14:43:24;100513.03;;;27.97;45.09
14882;BME280;7533;51.278;12.588;2023-06-04T14:48:27;100513.28;;;27.93;44.97
14882;BME280;7533;51.278;12.588;2023-06-04T14:53:31;100503.72;;;27.89;45.13
14882;BME280;7533;51.278;12.588;2023-06-04T14:58:34;100503.41;;;27.83;45.37
14882;BME280;7533;51.278;12.588;2023-06-04T15:03:38;100499.13;;;27.80;45.48
14882;BME280;7533;51.278;12.588;2023-06-04T15:08:43;100485.78;;;27.77;45.82
14882;BME280;7533;51.278;12.588;2023-06-04T15:13:46;100490.41;;;27.86;45.77
14882;BME280;7533;51.278;12.588;2023-06-04T15:18:49;100486.25;;;27.92;45.72
14882;BME280;7533;51.278;12.588;2023-06-04T15:23:53;100492.53;;;27.92;45.77
14882;BME280;7533;51.278;12.588;2023-06-04T15:28:56;100494.97;;;27.86;46.14
14882;BME280;7533;51.278;12.588;2023-06-04T15:33:59;100490.69;;;28.03;45.96
14882;BME280;7533;51.278;12.588;2023-06-04T15:39:03;100495.81;;;28.06;46.06
14882;BME280;7533;51.278;12.588;2023-06-04T15:44:06;100498.81;;;28.22;45.96
14882;BME280;7533;51.278;12.588;2023-06-04T15:49:09;100477.47;;;28.37;45.65
14882;BME280;7533;51.278;12.588;2023-06-04T15:54:14;100485.19;;;28.22;46.46
14882;BME280;7533;51.278;12.588;2023-06-04T15:59:17;100483.88;;;28.92;45.90
14882;BME280;7533;51.278;12.588;2023-06-04T16:04:19;100485.81;;;29.37;45.27
14882;BME280;7533;51.278;12.588;2023-06-04T16:09:24;100482.78;;;29.40;44.80
14882;BME280;7533;51.278;12.588;2023-06-04T16:14:27;100473.94;;;29.56;42.76
14882;BME280;7533;51.278;12.588;2023-06-04T16:19:30;100476.16;;;29.53;42.79
14882;BME280;7533;51.278;12.588;2023-06-04T16:24:34;100473.19;;;29.36;42.14
14882;BME280;7533;51.278;12.588;2023-06-04T16:29:37;100471.28;;;29.46;42.02
14882;BME280;7533;51.278;12.588;2023-06-04T16:34:40;100460.03;;;29.49;41.91
14882;BME280;7533;51.278;12.588;2023-06-04T16:39:44;100456.09;;;29.62;41.63
14882;BME280;7533;51.278;12.588;2023-06-04T16:44:47;100465.41;;;29.69;41.04
14882;BME280;7533;51.278;12.588;2023-06-04T16:49:53;100459.38;;;29.65;40.33
14882;BME280;7533;51.278;12.588;2023-06-04T16:54:57;100453.84;;;29.75;39.90
14882;BME280;7533;51.278;12.588;2023-06-04T17:00:01;100455.63;;;29.84;39.42
14882;BME280;7533;51.278;12.588;2023-06-04T17:05:25;100451.50;;;29.98;39.36
14882;BME280;7533;51.278;12.588;2023-06-04T17:10:30;100454.34;;;29.96;39.90
14882;BME280;7533;51.278;12.588;2023-06-04T17:15:34;100455.53;;;29.94;39.59
14882;BME280;7533;51.278;12.588;2023-06-04T17:20:37;100455.78;;;29.83;40.22
14882;BME280;7533;51.278;12.588;2023-06-04T17:25:42;100457.03;;;29.70;40.57
14882;BME280;7533;51.278;12.588;2023-06-04T17:30:45;100446.75;;;29.64;40.80
14882;BME280;7533;51.278;12.588;2023-06-04T17:35:48;100462.19;;;29.56;40.67
14882;BME280;7533;51.278;12.588;2023-06-04T17:40:52;100453.53;;;29.78;41.01
14882;BME280;7533;51.278;12.588;2023-06-04T17:45:56;100460.06;;;29.85;40.75
14882;BME280;7533;51.278;12.588;2023-06-04T17:50:59;100459.06;;;29.86;40.45
14882;BME280;7533;51.278;12.588;2023-06-04T17:56:04;100464.03;;;29.91;40.68
14882;BME280;7533;51.278;12.588;2023-06-04T18:01:07;100457.19;;;29.87;40.76
14882;BME280;7533;51.278;12.588;2023-06-04T18:06:10;100463.03;;;29.74;40.92
14882;BME280;7533;51.278;12.588;2023-06-04T18:11:15;100470.63;;;29.80;41.03
14882;BME280;7533;51.278;12.588;2023-06-04T18:16:18;100471.63;;;29.97;40.34
14882;BME280;7533;51.278;12.588;2023-06-04T18:21:21;100472.53;;;30.06;40.80
14882;BME280;7533;51.278;12.588;2023-06-04T18:26:39;100473.22;;;30.08;40.25
14882;BME280;7533;51.278;12.588;2023-06-04T18:31:42;100475.38;;;30.14;40.25
14882;BME280;7533;51.278;12.588;2023-06-04T18:36:59;100479.09;;;30.13;40.58
14882;BME280;7533;51.278;12.588;2023-06-04T18:42:04;100483.38;;;30.15;40.37
14882;BME280;7533;51.278;12.588;2023-06-04T18:47:22;100482.13;;;30.10;39.95
14882;BME280;7533;51.278;12.588;2023-06-04T18:52:25;100475.63;;;30.11;40.36
14882;BME280;7533;51.278;12.588;2023-06-04T18:57:30;100484.00;;;30.09;40.11
14882;BME280;7533;51.278;12.588;2023-06-04T19:02:34;100489.47;;;30.09;39.71
14882;BME280;7533;51.278;12.588;2023-06-04T19:07:38;100495.94;;;29.55;37.70
14882;BME280;7533;51.278;12.588;2023-06-04T19:12:43;100488.75;;;29.54;35.97
14882;BME280;7533;51.278;12.588;2023-06-04T19:17:46;100496.50;;;29.48;35.01
14882;BME280;7533;51.278;12.588;2023-06-04T19:22:49;100500.69;;;29.25;35.86
14882;BME280;7533;51.278;12.588;2023-06-04T19:27:53;100505.94;;;29.36;36.08
14882;BME280;7533;51.278;12.588;2023-06-04T19:32:57;100502.81;;;29.49;36.39
14882;BME280;7533;51.278;12.588;2023-06-04T19:38:00;100506.75;;;29.19;37.11
14882;BME280;7533;51.278;12.588;2023-06-04T19:43:09;100515.38;;;29.14;36.68
14882;BME280;7533;51.278;12.588;2023-06-04T19:48:17;100521.22;;;29.47;38.48
14882;BME280;7533;51.278;12.588;2023-06-04T19:53:20;100529.91;;;29.60;39.02
14882;BME280;7533;51.278;12.588;2023-06-04T19:58:25;100524.28;;;29.62;39.46
14882;BME280;7533;51.278;12.588;2023-06-04T20:03:28;100527.41;;;29.67;39.34
14882;BME280;7533;51.278;12.588;2023-06-04T20:08:33;100525.41;;;29.69;40.20
14882;BME280;7533;51.278;12.588;2023-06-04T20:13:37;100530.00;;;29.68;39.78
14882;BME280;7533;51.278;12.588;2023-06-04T20:18:40;100529.47;;;29.65;40.44
14882;BME280;7533;51.278;12.588;2023-06-04T20:23:43;100532.72;;;29.68;40.13
14882;BME280;7533;51.278;12.588;2023-06-04T20:28:48;100542.47;;;29.71;40.90
14882;BME280;7533;51.278;12.588;2023-06-04T20:33:54;100543.94;;;29.65;41.00
14882;BME280;7533;51.278;12.588;2023-06-04T20:38:58;100548.78;;;29.54;41.22
14882;BME280;7533;51.278;12.588;2023-06-04T20:44:03;100550.75;;;29.51;41.43
14882;BME280;7533;51.278;12.588;2023-06-04T20:49:06;100552.91;;;29.58;41.71
14882;BME280;7533;51.278;12.588;2023-06-04T20:54:09;100560.22;;;29.57;41.73
14882;BME280;7533;51.278;12.588;2023-06-04T20:59:14;100551.50;;;29.54;41.50
14882;BME280;7533;51.278;12.588;2023-06-04T21:04:17;100552.50;;;29.53;41.89
14882;BME280;7533;51.278;12.588;2023-06-04T21:09:20;100552.03;;;29.57;42.24
14882;BME280;7533;51.278;12.588;2023-06-04T21:14:25;100552.94;;;29.48;42.39
14882;BME280;7533;51.278;12.588;2023-06-04T21:25:43;100556.03;;;29.35;42.89
14882;BME280;7533;51.278;12.588;2023-06-04T21:30:47;100549.84;;;29.33;42.82
14882;BME280;7533;51.278;12.588;2023-06-04T21:35:50;100552.31;;;29.27;42.61
14882;BME280;7533;51.278;12.588;2023-06-04T21:40:53;100559.53;;;29.18;42.98
14882;BME280;7533;51.278;12.588;2023-06-04T21:45:58;100562.16;;;29.10;43.20
14882;BME280;7533;51.278;12.588;2023-06-04T21:51:01;100565.03;;;29.08;43.27
14882;BME280;7533;51.278;12.588;2023-06-04T21:56:04;100566.50;;;29.03;43.52
14882;BME280;7533;51.278;12.588;2023-06-04T22:01:08;100568.50;;;28.91;43.87
14882;BME280;7533;51.278;12.588;2023-06-04T22:06:11;100566.94;;;28.88;43.79
14882;BME280;7533;51.278;12.588;2023-06-04T22:11:15;100568.69;;;28.80;43.96
14882;BME280;7533;51.278;12.588;2023-06-04T22:16:23;100578.00;;;28.77;44.32
14882;BME280;7533;51.278;12.588;2023-06-04T22:21:26;100571.84;;;28.75;44.10
14882;BME280;7533;51.278;12.588;2023-06-04T22:26:29;100570.84;;;28.76;44.64
14882;BME280;7533;51.278;12.588;2023-06-04T22:31:40;100568.72;;;28.70;44.84
14882;BME280;7533;51.278;12.588;2023-06-04T22:36:43;100564.69;;;28.64;44.68
14882;BME280;7533;51.278;12.588;2023-06-04T22:41:47;100565.66;;;28.73;44.66
14882;BME280;7533;51.278;12.588;2023-06-04T22:46:51;100571.00;;;28.75;44.68
14882;BME280;7533;51.278;12.588;2023-06-04T22:51:54;100565.09;;;28.79;44.86
14882;BME280;7533;51.278;12.588;2023-06-04T22:56:57;100554.34;;;28.78;44.99
14882;BME280;7533;51.278;12.588;2023-06-04T23:02:01;100563.25;;;28.70;44.98
14882;BME280;7533;51.278;12.588;2023-06-04T23:07:04;100560.69;;;28.68;45.09
14882;BME280;7533;51.278;12.588;2023-06-04T23:12:07;100561.13;;;28.64;45.18
14882;BME280;7533;51.278;12.588;2023-06-04T23:17:13;100569.72;;;28.59;45.59
14882;BME280;7533;51.278;12.588;2023-06-04T23:22:17;100561.72;;;28.58;45.44
14882;BME280;7533;51.278;12.588;2023-06-04T23:27:20;100563.28;;;28.51;45.48
14882;BME280;7533;51.278;12.588;2023-06-04T23:32:24;100564.16;;;28.51;45.83
14882;BME280;7533;51.278;12.588;2023-06-04T23:37:27;100570.75;;;28.49;45.98
14882;BME280;7533;51.278;12.588;2023-06-04T23:42:30;100562.31;;;28.42;46.00
14882;BME280;7533;51.278;12.588;2023-06-04T23:47:34;100561.72;;;28.38;46.09
14882;BME280;7533;51.278;12.588;2023-06-04T23:52:37;100557.84;;;28.31;46.04
14882;BME280;7533;51.278;12.588;2023-06-04T23:57:40;100560.13;;;28.26;46.26
